Time;durP1;ratioP1;P1;durP2;ratioP2;P2;SDS_P1;SDS_P2;PMS_P1;PMS_P2;Temp;Humidity;BMP_temperature;BMP_pressure;BME280_temperature;BME280_humidity;BME280_pressure;Samples;Min_cycle;Max_cycle;Signal;HPM_P1;HPM_P2
2021/12/02 00:02:24;;;;;;;4.45;1.40;;;;;;;6.87;85.59;98999.06;6745565;26;34001;-67
2021/12/02 00:05:26;;;;;;;2.45;1.37;;;;;;;6.87;85.58;99008.81;6745342;26;34827;-68
2021/12/02 00:08:29;;;;;;;2.35;1.23;;;;;;;6.88;85.33;99016.53;6725487;26;34427;-68
2021/12/02 00:11:32;;;;;;;5.55;1.50;;;;;;;6.95;85.17;99012.19;6745381;26;33723;-68
2021/12/02 00:14:43;;;;;;;3.47;1.30;;;;;;;6.95;84.99;99003.47;6745360;26;33947;-68
2021/12/02 00:17:53;;;;;;;3.22;1.62;;;;;;;6.97;85.10;98980.41;6725752;26;34070;-68
2021/12/02 00:21:05;;;;;;;2.50;1.33;;;;;;;7.02;84.69;98991.19;6745228;26;33977;-68
2021/12/02 00:24:09;;;;;;;3.47;1.27;;;;;;;6.95;85.24;98990.28;6745434;26;34284;-67
2021/12/02 00:27:13;;;;;;;3.55;1.58;;;;;;;6.96;84.93;98992.75;6745723;26;34626;-67
2021/12/02 00:30:17;;;;;;;2.97;1.30;;;;;;;6.90;86.07;98988.19;6744932;26;34707;-67
2021/12/02 00:33:25;;;;;;;3.15;1.60;;;;;;;6.82;86.60;99003.25;6745135;26;33666;-67
2021/12/02 00:36:31;;;;;;;2.72;1.00;;;;;;;6.84;86.52;98998.62;6706597;26;34213;-68
2021/12/02 00:39:34;;;;;;;2.75;1.33;;;;;;;6.75;87.28;98999.69;6725164;26;34178;-67
2021/12/02 00:42:38;;;;;;;2.62;1.30;;;;;;;6.76;87.49;98993.41;6746291;26;33986;-67
2021/12/02 00:45:42;;;;;;;6.12;1.65;;;;;;;6.71;87.46;98996.59;6746400;26;33916;-68
2021/12/02 00:48:45;;;;;;;3.67;1.52;;;;;;;6.71;87.58;98990.50;6726549;26;33876;-68
2021/12/02 00:51:54;;;;;;;2.42;1.40;;;;;;;6.82;87.35;99000.63;6746301;26;34057;-68
2021/12/02 00:54:57;;;;;;;2.53;1.30;;;;;;;6.77;87.79;99006.44;6746900;26;34133;-68
2021/12/02 00:58:00;;;;;;;2.70;1.40;;;;;;;6.68;89.54;98998.75;6746427;26;33892;-68
2021/12/02 01:01:05;;;;;;;2.65;1.30;;;;;;;6.56;90.86;98995.72;6746391;26;34626;-68
2021/12/02 01:04:13;;;;;;;2.42;1.55;;;;;;;6.55;91.21;99010.69;6746177;26;33845;-68
2021/12/02 01:07:17;;;;;;;3.45;1.90;;;;;;;6.50;90.68;99013.03;6746262;26;34247;-68
2021/12/02 01:10:21;;;;;;;6.50;2.65;;;;;;;6.42;91.87;99015.72;6746228;26;35073;-68
2021/12/02 01:13:23;;;;;;;6.50;2.40;;;;;;;6.32;91.49;99016.94;6746305;26;33982;-68
2021/12/02 01:16:26;;;;;;;8.25;2.58;;;;;;;6.24;92.21;99012.56;6746402;26;33993;-68
2021/12/02 01:19:29;;;;;;;4.57;2.10;;;;;;;6.19;92.37;99012.25;6746313;26;33926;-67
2021/12/02 01:22:35;;;;;;;2.95;2.00;;;;;;;6.19;92.30;99016.69;6746364;26;34690;-68
2021/12/02 01:25:40;;;;;;;5.78;2.50;;;;;;;6.24;92.29;99011.72;6746381;26;34042;-68
2021/12/02 01:28:44;;;;;;;5.15;2.10;;;;;;;6.22;92.83;99011.06;6723566;26;34319;-68
2021/12/02 01:31:51;;;;;;;5.25;2.62;;;;;;;6.21;91.86;99007.63;6710432;26;33855;-68
2021/12/02 01:34:57;;;;;;;2.85;1.95;;;;;;;6.21;93.00;99006.78;6697665;26;34034;-68
2021/12/02 01:38:00;;;;;;;3.62;2.00;;;;;;;6.30;91.67;99001.31;6717607;26;34652;-68
2021/12/02 01:41:04;;;;;;;3.35;1.90;;;;;;;6.31;91.44;98996.84;6717668;26;33793;-68
2021/12/02 01:44:11;;;;;;;8.13;2.03;;;;;;;6.27;92.21;98995.56;6698300;26;33779;-68
2021/12/02 01:47:14;;;;;;;3.90;2.00;;;;;;;6.26;92.75;98989.47;6717985;26;34071;-68
2021/12/02 01:50:21;;;;;;;3.65;1.90;;;;;;;6.27;93.18;98991.12;6717515;26;34682;-67
2021/12/02 01:53:29;;;;;;;3.75;1.90;;;;;;;6.30;91.89;98996.03;6697572;26;33987;-67
2021/12/02 01:56:41;;;;;;;3.60;1.55;;;;;;;6.38;91.64;98998.62;6717685;26;33810;-68
2021/12/02 01:59:51;;;;;;;3.45;1.80;;;;;;;6.46;92.08;98993.31;6717693;26;33943;-68
2021/12/02 02:02:54;;;;;;;3.15;1.40;;;;;;;6.42;91.68;99004.38;6717639;26;34712;-68
2021/12/02 02:06:04;;;;;;;6.93;1.40;;;;;;;6.47;90.73;98988.88;6717579;26;34651;-68
2021/12/02 02:09:09;;;;;;;2.80;1.50;;;;;;;6.59;89.69;98984.81;6717401;26;34201;-68
2021/12/02 02:12:13;;;;;;;5.12;1.52;;;;;;;6.59;90.00;98979.53;6717384;26;33966;-68
2021/12/02 02:15:15;;;;;;;2.95;1.73;;;;;;;6.62;89.79;98981.00;6697723;26;34780;-68
2021/12/02 02:18:21;;;;;;;8.23;1.98;;;;;;;6.59;90.07;98984.81;6717545;26;34230;-68
2021/12/02 02:21:24;;;;;;;4.78;1.77;;;;;;;6.54;90.19;98980.06;6717341;26;33812;-69
2021/12/02 02:24:27;;;;;;;3.92;1.75;;;;;;;6.62;89.10;98981.84;6717930;26;35085;-69
2021/12/02 02:27:30;;;;;;;3.00;1.92;;;;;;;6.61;89.06;98976.72;6717284;26;34624;-68
2021/12/02 02:30:32;;;;;;;4.80;2.20;;;;;;;6.52;90.05;98976.81;6697801;26;33937;-69
2021/12/02 02:33:37;;;;;;;4.95;2.40;;;;;;;6.46;89.79;98968.78;6717376;26;33876;-69
2021/12/02 02:36:50;;;;;;;4.57;2.42;;;;;;;6.45;89.86;98970.59;6717398;26;33996;-68
2021/12/02 02:39:52;;;;;;;5.62;2.12;;;;;;;6.38;90.46;98972.31;6717412;26;33955;-68
2021/12/02 02:43:04;;;;;;;3.47;1.85;;;;;;;6.34;90.65;98965.72;6717437;26;33820;-68
2021/12/02 02:46:06;;;;;;;7.22;2.10;;;;;;;6.31;90.76;98963.44;6697659;26;33985;-68
2021/12/02 02:49:12;;;;;;;3.85;2.00;;;;;;;6.27;91.15;98970.06;6717387;26;35223;-67
2021/12/02 02:52:15;;;;;;;5.15;2.20;;;;;;;6.29;90.80;98973.34;6697779;26;34654;-68
2021/12/02 02:55:23;;;;;;;4.68;2.35;;;;;;;6.29;91.16;98975.97;6717790;26;34119;-68
2021/12/02 02:58:33;;;;;;;5.75;2.40;;;;;;;6.30;90.65;98968.88;6717346;26;35136;-68
2021/12/02 03:01:49;;;;;;;4.93;2.50;;;;;;;6.29;91.04;98970.72;6717581;26;33766;-68
2021/12/02 03:05:00;;;;;;;5.32;2.47;;;;;;;6.27;91.23;98963.97;6717282;26;35322;-68
2021/12/02 03:08:17;;;;;;;8.63;2.72;;;;;;;6.26;91.83;98965.78;6697548;26;34045;-68
2021/12/02 03:11:21;;;;;;;3.75;2.30;;;;;;;6.26;94.19;98970.22;6717366;26;34187;-68
2021/12/02 03:17:46;;;;;;;5.68;2.15;;;;;;;6.19;94.84;98961.41;6717686;26;34391;-68
2021/12/02 03:20:48;;;;;;;5.82;2.00;;;;;;;6.16;95.03;98956.47;6717252;26;34509;-68
2021/12/02 03:23:54;;;;;;;4.00;2.03;;;;;;;6.15;95.60;98954.84;6697799;26;34602;-67
2021/12/02 03:26:57;;;;;;;3.83;2.20;;;;;;;6.15;95.62;98958.28;6717159;26;33819;-67
2021/12/02 03:30:00;;;;;;;3.15;2.03;;;;;;;6.15;95.68;98965.37;6717059;26;34598;-67
2021/12/02 03:33:02;;;;;;;5.97;2.40;;;;;;;6.14;95.42;98972.47;6717510;26;33761;-68
2021/12/02 03:36:05;;;;;;;4.60;1.70;;;;;;;6.18;95.46;98972.91;6697180;26;33958;-68
2021/12/02 03:39:11;;;;;;;5.30;1.90;;;;;;;6.30;93.99;98982.03;6717282;26;33849;-69
2021/12/02 03:42:13;;;;;;;3.92;1.90;;;;;;;6.15;98.09;98974.06;6717014;26;34274;-69
2021/12/02 03:45:17;;;;;;;4.75;2.10;;;;;;;5.85;100.00;98969.63;6717092;26;33884;-69
2021/12/02 03:48:20;;;;;;;4.72;2.03;;;;;;;5.65;100.00;98967.41;6717084;26;33984;-69
2021/12/02 03:51:23;;;;;;;3.00;1.83;;;;;;;5.60;100.00;98967.09;6716978;26;35247;-69
2021/12/02 03:54:26;;;;;;;2.62;1.58;;;;;;;5.59;100.00;98970.72;6717115;26;34415;-69
2021/12/02 03:57:31;;;;;;;5.97;2.30;;;;;;;5.54;100.00;98961.69;6717428;26;34021;-69
2021/12/02 04:00:35;;;;;;;3.65;2.03;;;;;;;5.42;100.00;98955.16;6716973;26;33749;-69
2021/12/02 04:03:38;;;;;;;3.45;2.17;;;;;;;5.35;100.00;98956.81;6697165;26;33956;-69
2021/12/02 04:06:41;;;;;;;4.90;2.20;;;;;;;5.34;100.00;98965.69;6678321;26;33967;-69
2021/12/02 04:09:45;;;;;;;4.40;1.75;;;;;;;5.39;100.00;98961.56;6716885;26;33785;-69
2021/12/02 04:15:54;;;;;;;5.00;2.35;;;;;;;5.36;100.00;98972.44;6717443;26;33951;-68
2021/12/02 04:18:57;;;;;;;5.07;2.35;;;;;;;5.34;100.00;98969.16;6718087;26;33821;-69
2021/12/02 04:22:00;;;;;;;7.30;2.10;;;;;;;5.34;100.00;98969.16;6718354;26;33990;-68
2021/12/02 04:25:03;;;;;;;8.05;2.45;;;;;;;5.40;100.00;98957.13;6718105;26;33961;-68
2021/12/02 04:28:06;;;;;;;3.87;2.00;;;;;;;5.46;100.00;98972.25;6717438;26;33809;-69
2021/12/02 04:31:09;;;;;;;3.47;2.40;;;;;;;5.63;100.00;98973.81;6717894;26;34765;-69
2021/12/02 04:34:13;;;;;;;4.70;2.40;;;;;;;5.68;100.00;98979.37;6717985;26;34037;-69
2021/12/02 04:37:16;;;;;;;6.90;3.28;;;;;;;5.69;100.00;98975.75;6717725;26;34609;-69
2021/12/02 04:40:21;;;;;;;5.93;2.67;;;;;;;5.64;100.00;98971.03;6718262;26;34514;-69
2021/12/02 04:43:24;;;;;;;6.43;2.80;;;;;;;5.62;100.00;98969.53;6718165;26;35476;-68
2021/12/02 04:46:26;;;;;;;6.47;2.95;;;;;;;5.60;100.00;98977.63;6717886;26;34434;-68
2021/12/02 04:49:29;;;;;;;8.15;2.53;;;;;;;5.54;100.00;98974.84;6697415;26;33000;-70
2021/12/02 04:52:32;;;;;;;5.45;2.47;;;;;;;5.54;100.00;98985.34;6718156;26;34012;-68
2021/12/02 04:55:37;;;;;;;4.57;2.75;;;;;;;5.52;100.00;98969.72;6717787;26;34066;-68
2021/12/02 04:58:40;;;;;;;6.07;2.58;;;;;;;5.57;100.00;98966.59;6717774;26;34770;-67
2021/12/02 05:01:42;;;;;;;7.45;3.15;;;;;;;5.69;100.00;98945.03;6717898;26;34697;-68
2021/12/02 05:04:45;;;;;;;5.07;3.00;;;;;;;5.75;100.00;98948.78;6717871;26;34860;-68
2021/12/02 05:07:49;;;;;;;5.93;3.05;;;;;;;5.73;100.00;98953.38;6697907;26;34728;-68
2021/12/02 05:10:52;;;;;;;8.68;3.15;;;;;;;5.65;100.00;98942.91;6717975;26;35028;-68
2021/12/02 05:13:54;;;;;;;8.50;3.37;;;;;;;5.64;100.00;98949.97;6717672;26;34106;-69
2021/12/02 05:16:57;;;;;;;8.30;3.55;;;;;;;5.56;100.00;98963.16;6717722;26;34579;-69
2021/12/02 05:19:59;;;;;;;5.75;3.22;;;;;;;5.55;100.00;98963.31;6717426;26;33983;-69
2021/12/02 05:23:02;;;;;;;7.45;3.28;;;;;;;5.50;100.00;98970.91;6717692;26;35681;-69
2021/12/02 05:26:05;;;;;;;6.35;3.58;;;;;;;5.50;100.00;98984.06;6717514;26;33663;-69
2021/12/02 05:29:08;;;;;;;7.37;2.92;;;;;;;5.45;100.00;98976.69;6717181;26;34048;-68
2021/12/02 05:32:10;;;;;;;6.45;3.62;;;;;;;5.45;100.00;98970.59;6718040;26;34097;-69
2021/12/02 05:35:13;;;;;;;6.07;3.50;;;;;;;5.42;100.00;98963.06;6717485;26;34690;-69
2021/12/02 05:38:16;;;;;;;5.30;3.25;;;;;;;5.48;100.00;98965.81;6717702;26;34663;-69
2021/12/02 05:41:19;;;;;;;5.80;3.03;;;;;;;5.50;100.00;98971.72;6717593;26;34053;-70
2021/12/02 05:44:22;;;;;;;6.80;3.08;;;;;;;5.48;100.00;98963.19;6697594;26;34830;-70
2021/12/02 05:47:25;;;;;;;6.12;2.80;;;;;;;5.48;100.00;98959.72;6717093;26;34038;-71
2021/12/02 05:50:27;;;;;;;7.15;2.75;;;;;;;5.45;100.00;98966.16;6697130;26;34729;-68
2021/12/02 05:53:30;;;;;;;6.32;2.40;;;;;;;5.47;100.00;98964.16;6717979;26;34487;-68
2021/12/02 05:56:33;;;;;;;5.90;3.15;;;;;;;5.43;100.00;98960.22;6717288;26;33854;-69
2021/12/02 05:59:35;;;;;;;8.15;2.78;;;;;;;5.42;100.00;98952.53;6717442;26;34641;-69
2021/12/02 06:02:39;;;;;;;5.82;2.75;;;;;;;5.52;100.00;98943.44;6717328;26;34229;-69
2021/12/02 06:05:44;;;;;;;9.00;3.33;;;;;;;5.51;100.00;98952.34;6716832;26;35050;-68
2021/12/02 06:08:47;;;;;;;5.35;3.58;;;;;;;5.47;100.00;98948.38;6716961;26;34034;-68
2021/12/02 06:11:50;;;;;;;9.60;4.20;;;;;;;5.63;100.00;98964.13;6716436;26;33909;-68
2021/12/02 06:14:52;;;;;;;8.50;4.53;;;;;;;5.66;100.00;98952.44;6716931;26;35004;-69
2021/12/02 06:17:55;;;;;;;11.15;4.72;;;;;;;5.74;100.00;98964.72;6719731;26;35179;-67
2021/12/02 06:20:57;;;;;;;7.60;4.35;;;;;;;5.74;100.00;98968.19;6716939;26;33687;-70
2021/12/02 06:24:03;;;;;;;8.68;3.90;;;;;;;5.76;100.00;98968.81;6715621;26;34169;-68
2021/12/02 06:27:06;;;;;;;6.78;3.95;;;;;;;5.75;100.00;98966.38;6716098;26;33855;-68
2021/12/02 06:30:10;;;;;;;8.90;4.45;;;;;;;5.76;100.00;98965.37;6716223;26;34760;-68
2021/12/02 06:33:14;;;;;;;9.73;4.60;;;;;;;5.76;100.00;98954.88;6715404;26;34800;-70
2021/12/02 06:36:18;;;;;;;7.45;3.95;;;;;;;5.71;100.00;98958.00;6714783;26;34171;-69
2021/12/02 06:39:32;;;;;;;7.85;4.30;;;;;;;5.68;100.00;98960.97;6715531;26;35219;-69
2021/12/02 06:42:35;;;;;;;10.52;4.93;;;;;;;5.66;100.00;98969.03;6716041;26;34523;-70
2021/12/02 06:45:38;;;;;;;9.98;4.62;;;;;;;5.65;100.00;98980.56;6696406;26;35052;-68
2021/12/02 06:48:41;;;;;;;10.98;5.05;;;;;;;5.63;100.00;98973.81;6715996;26;34637;-69
2021/12/02 06:51:43;;;;;;;12.13;4.20;;;;;;;5.68;100.00;98982.84;6716882;26;34589;-69
2021/12/02 06:54:46;;;;;;;9.70;4.70;;;;;;;5.68;100.00;98990.72;6696688;26;33918;-68
2021/12/02 06:57:48;;;;;;;9.10;4.43;;;;;;;5.69;100.00;98988.91;6696344;26;34736;-68
2021/12/02 07:00:51;;;;;;;8.80;4.60;;;;;;;5.70;100.00;98985.31;6716227;26;34394;-68
2021/12/02 07:03:54;;;;;;;14.93;5.43;;;;;;;5.74;100.00;98986.59;6714577;26;34653;-67
2021/12/02 07:06:56;;;;;;;14.80;5.03;;;;;;;5.67;100.00;98990.88;6716699;26;34154;-68
2021/12/02 07:09:59;;;;;;;11.43;5.10;;;;;;;5.74;100.00;98977.88;6716312;26;35355;-68
2021/12/02 07:13:02;;;;;;;10.90;6.40;;;;;;;5.75;100.00;98982.97;6715555;26;34277;-68
2021/12/02 07:16:05;;;;;;;11.80;5.80;;;;;;;5.72;100.00;98993.84;6695536;26;35128;-68
2021/12/02 07:19:09;;;;;;;16.67;6.43;;;;;;;5.65;100.00;99006.88;6716341;26;34471;-70
2021/12/02 07:22:12;;;;;;;12.75;6.40;;;;;;;5.72;100.00;99016.69;6715055;26;33712;-69
2021/12/02 07:25:15;;;;;;;11.07;6.18;;;;;;;5.72;100.00;99024.59;6715294;26;34036;-70
2021/12/02 07:28:21;;;;;;;15.00;7.60;;;;;;;5.72;100.00;99008.78;6715546;26;34085;-68
2021/12/02 07:31:29;;;;;;;16.67;7.05;;;;;;;5.70;100.00;99003.72;6696550;26;34204;-69
2021/12/02 07:34:34;;;;;;;14.07;7.18;;;;;;;5.69;100.00;99000.28;6714726;26;34155;-69
2021/12/02 07:37:44;;;;;;;17.62;7.40;;;;;;;5.67;100.00;99004.03;6695517;26;33823;-69
2021/12/02 07:40:47;;;;;;;15.77;6.97;;;;;;;5.60;100.00;99000.47;6716291;26;34742;-69
2021/12/02 07:43:50;;;;;;;14.20;7.28;;;;;;;5.50;100.00;99019.06;6715465;26;33900;-70
2021/12/02 07:46:55;;;;;;;16.23;7.50;;;;;;;5.48;100.00;99020.22;6716369;26;33953;-69
2021/12/02 07:49:58;;;;;;;18.40;8.00;;;;;;;5.38;100.00;99015.16;6694732;26;34046;-71
2021/12/02 07:53:06;;;;;;;15.98;6.68;;;;;;;5.32;100.00;99015.00;6715898;26;33691;-71
2021/12/02 07:56:13;;;;;;;17.60;7.65;;;;;;;5.31;100.00;99013.38;6716788;26;34369;-71
2021/12/02 07:59:17;;;;;;;17.40;7.60;;;;;;;5.31;100.00;99026.50;6697304;26;34885;-71
2021/12/02 08:02:21;;;;;;;13.98;6.57;;;;;;;5.30;100.00;99023.06;6716231;26;33975;-71
2021/12/02 08:05:26;;;;;;;17.83;7.12;;;;;;;5.27;100.00;99025.22;6716549;26;33868;-72
2021/12/02 08:08:29;;;;;;;13.98;6.70;;;;;;;5.27;100.00;99026.03;6716821;26;34180;-72
2021/12/02 08:11:33;;;;;;;14.18;6.68;;;;;;;5.34;100.00;99020.91;6696431;26;34491;-71
2021/12/02 08:14:36;;;;;;;14.55;6.35;;;;;;;5.30;100.00;99023.06;6716535;26;34019;-71
2021/12/02 08:17:39;;;;;;;13.55;6.20;;;;;;;5.37;100.00;99031.94;6716491;26;34285;-72
2021/12/02 08:20:41;;;;;;;17.25;6.40;;;;;;;5.50;100.00;99031.41;6716610;26;34169;-72
2021/12/02 08:23:45;;;;;;;15.85;6.87;;;;;;;5.48;100.00;99023.66;6716486;26;34679;-75
2021/12/02 08:26:48;;;;;;;14.35;7.35;;;;;;;5.56;100.00;99034.19;6716370;26;34067;-74
2021/12/02 08:29:51;;;;;;;14.80;6.93;;;;;;;5.51;100.00;99031.25;6716438;26;34110;-73
2021/12/02 08:32:55;;;;;;;16.92;7.75;;;;;;;5.54;100.00;99036.16;6716158;26;34729;-73
2021/12/02 08:35:58;;;;;;;14.90;7.10;;;;;;;5.57;100.00;99042.88;6715780;26;34454;-73
2021/12/02 08:39:05;;;;;;;21.48;7.30;;;;;;;5.56;100.00;99046.53;6716076;26;34760;-73
2021/12/02 08:42:09;;;;;;;14.43;7.80;;;;;;;5.56;100.00;99052.59;6716233;26;34912;-76
2021/12/02 08:45:13;;;;;;;14.45;7.53;;;;;;;5.58;100.00;99055.03;6716369;26;34627;-74
2021/12/02 08:48:16;;;;;;;15.65;7.75;;;;;;;5.59;100.00;99054.88;6716070;26;34657;-74
2021/12/02 08:51:19;;;;;;;15.85;7.18;;;;;;;5.61;100.00;99066.06;6716333;26;34378;-74
2021/12/02 08:54:23;;;;;;;20.12;8.07;;;;;;;5.60;100.00;99071.50;6696293;26;34083;-75
2021/12/02 08:57:26;;;;;;;22.02;7.82;;;;;;;5.62;100.00;99066.88;6696014;26;34796;-75
2021/12/02 09:00:35;;;;;;;16.58;7.53;;;;;;;5.63;100.00;99061.44;6696340;26;33772;-75
2021/12/02 09:03:38;;;;;;;15.10;7.32;;;;;;;5.65;100.00;99063.94;6717662;26;34639;-75
2021/12/02 09:06:41;;;;;;;15.63;7.62;;;;;;;5.69;100.00;99059.97;6717886;26;34452;-75
2021/12/02 09:09:43;;;;;;;18.60;8.25;;;;;;;5.74;100.00;99065.53;6717694;26;34066;-74
2021/12/02 09:12:48;;;;;;;23.20;7.72;;;;;;;5.80;100.00;99061.41;6717872;26;33879;-73
2021/12/02 09:15:51;;;;;;;14.80;7.03;;;;;;;5.85;100.00;99051.19;6717768;26;33735;-74
2021/12/02 09:18:54;;;;;;;16.23;7.72;;;;;;;5.93;100.00;99051.19;6717708;26;34144;-74
2021/12/02 09:21:56;;;;;;;16.15;7.62;;;;;;;6.00;100.00;99046.91;6717611;26;34067;-74
2021/12/02 09:24:59;;;;;;;19.37;7.90;;;;;;;6.08;100.00;99044.22;6717723;26;35310;-74
2021/12/02 09:28:02;;;;;;;24.02;8.90;;;;;;;6.14;100.00;99043.53;6717649;26;33938;-76
2021/12/02 09:31:06;;;;;;;21.42;8.85;;;;;;;6.11;100.00;99042.06;6717625;26;34589;-76
2021/12/02 09:34:08;;;;;;;16.10;7.85;;;;;;;6.18;100.00;99034.31;6717775;26;34403;-75
2021/12/02 09:37:11;;;;;;;18.05;8.25;;;;;;;6.29;100.00;99030.47;6717995;26;33705;-75
2021/12/02 09:40:15;;;;;;;21.80;8.60;;;;;;;6.31;100.00;99023.19;6717317;26;34328;-74
2021/12/02 09:43:18;;;;;;;22.45;9.50;;;;;;;6.28;100.00;99020.91;6717239;26;34377;-75
2021/12/02 09:46:20;;;;;;;23.33;10.15;;;;;;;6.02;100.00;99026.47;6697596;26;34004;-74
2021/12/02 09:49:24;;;;;;;19.48;10.25;;;;;;;5.92;100.00;99020.59;6717562;26;34803;-75
2021/12/02 09:52:32;;;;;;;20.95;11.95;;;;;;;5.89;100.00;99018.31;6717200;26;34015;-76
2021/12/02 09:58:42;;;;;;;22.85;10.52;;;;;;;5.91;100.00;99016.31;6717223;26;34633;-76
2021/12/02 10:01:49;;;;;;;21.83;10.88;;;;;;;6.03;100.00;99010.53;6717387;26;34999;-76
2021/12/02 10:05:02;;;;;;;20.08;10.57;;;;;;;6.07;100.00;99008.34;6717319;26;33985;-77
2021/12/02 10:08:08;;;;;;;23.23;10.63;;;;;;;5.98;100.00;98999.69;6717374;26;33707;-77
2021/12/02 10:11:15;;;;;;;24.37;10.70;;;;;;;5.96;100.00;99008.72;6697204;26;34568;-76
2021/12/02 10:14:36;;;;;;;24.67;10.63;;;;;;;6.00;100.00;98996.88;6716033;26;34115;-77
2021/12/02 10:20:50;;;;;;;22.77;10.88;;;;;;;6.05;100.00;98990.09;6717089;26;34114;-75
2021/12/02 10:23:53;;;;;;;22.17;10.57;;;;;;;6.09;100.00;98983.50;6717373;26;33982;-77
2021/12/02 10:27:03;;;;;;;21.37;10.55;;;;;;;6.09;100.00;98969.53;6697487;26;33898;-76
2021/12/02 10:30:21;;;;;;;17.33;8.38;;;;;;;6.09;100.00;98972.16;6711288;26;153817;-74
2021/12/02 10:33:37;;;;;;;14.73;7.72;;;;;;;6.26;100.00;98978.94;6697617;26;33969;-76
2021/12/02 10:36:43;;;;;;;19.45;7.43;;;;;;;6.25;100.00;98974.66;6716974;26;34034;-76
2021/12/02 10:40:05;;;;;;;17.48;6.87;;;;;;;6.19;100.00;98975.38;6717289;26;35333;-76
2021/12/02 10:43:09;;;;;;;16.73;7.60;;;;;;;6.22;100.00;98975.03;6717109;26;34073;-75
2021/12/02 10:46:15;;;;;;;21.45;8.77;;;;;;;6.25;100.00;98966.78;6716779;26;34365;-77
2021/12/02 10:49:19;;;;;;;13.95;8.48;;;;;;;6.15;100.00;98966.16;6716256;26;33910;-76
2021/12/02 10:52:30;;;;;;;23.83;9.23;;;;;;;6.26;100.00;98962.31;6720314;26;34833;-75
2021/12/02 10:55:34;;;;;;;23.10;10.73;;;;;;;6.18;100.00;98962.38;6697071;26;33898;-76
2021/12/02 10:58:36;;;;;;;18.52;10.13;;;;;;;6.01;100.00;98961.66;6716342;26;34654;-76
2021/12/02 11:01:40;;;;;;;19.75;11.38;;;;;;;6.05;100.00;98953.22;6716847;26;34639;-77
2021/12/02 11:04:46;;;;;;;27.73;11.05;;;;;;;6.10;100.00;98948.25;6717466;26;33868;-75
2021/12/02 11:08:02;;;;;;;19.87;10.05;;;;;;;6.12;100.00;98951.56;6717007;26;33935;-77
2021/12/02 11:11:22;;;;;;;12.80;8.35;;;;;;;6.03;100.00;98938.62;6717669;26;34043;-76
2021/12/02 11:14:29;;;;;;;15.63;8.35;;;;;;;6.05;100.00;98936.66;6717154;26;34141;-77
2021/12/02 11:17:34;;;;;;;12.75;7.03;;;;;;;6.00;100.00;98934.50;6717055;26;35220;-76
2021/12/02 11:20:44;;;;;;;10.90;6.22;;;;;;;6.16;100.00;98928.31;6716326;26;33725;-77
2021/12/02 11:23:47;;;;;;;8.93;5.47;;;;;;;6.00;100.00;98931.88;6716645;26;34725;-75
2021/12/02 11:27:08;;;;;;;7.60;4.65;;;;;;;6.07;100.00;98921.47;6716314;26;34195;-75
2021/12/02 11:30:18;;;;;;;11.90;6.37;;;;;;;5.94;100.00;98929.13;6716602;26;34729;-75
2021/12/02 11:33:29;;;;;;;9.13;4.75;;;;;;;5.94;100.00;98923.88;6695846;26;35106;-74
2021/12/02 11:36:32;;;;;;;7.50;4.68;;;;;;;5.93;100.00;98916.97;6715947;26;34657;-76
2021/12/02 11:39:39;;;;;;;9.48;4.65;;;;;;;5.81;100.00;98919.13;6716773;26;34627;-77
2021/12/02 11:42:43;;;;;;;13.50;4.80;;;;;;;5.84;100.00;98924.06;6716734;26;34574;-75
2021/12/02 11:45:50;;;;;;;9.48;4.60;;;;;;;5.82;100.00;98918.13;6697411;26;33999;-75
2021/12/02 11:48:54;;;;;;;8.77;4.35;;;;;;;5.85;100.00;98912.53;6716816;26;34501;-77
2021/12/02 11:51:56;;;;;;;9.38;3.53;;;;;;;5.86;100.00;98922.06;6716607;26;33983;-75
2021/12/02 11:55:06;;;;;;;8.38;4.05;;;;;;;5.93;100.00;98915.16;6716651;26;34405;-75
2021/12/02 11:58:09;;;;;;;7.10;3.58;;;;;;;5.81;100.00;98921.75;6716685;26;34129;-77
2021/12/02 12:01:23;;;;;;;5.93;3.28;;;;;;;5.81;100.00;98913.06;6696608;26;34042;-76
2021/12/02 12:04:26;;;;;;;7.85;3.28;;;;;;;5.84;100.00;98903.00;6716983;26;34005;-76
2021/12/02 12:07:41;;;;;;;7.00;3.50;;;;;;;5.87;100.00;98909.75;6716557;26;33998;-75
2021/12/02 12:10:44;;;;;;;5.97;3.40;;;;;;;5.87;100.00;98897.41;6696628;26;33760;-75
2021/12/02 12:13:49;;;;;;;8.10;2.83;;;;;;;5.87;100.00;98897.41;6715508;26;34590;-75
2021/12/02 12:17:04;;;;;;;4.22;2.37;;;;;;;5.85;100.00;98894.13;6716557;26;33792;-75
2021/12/02 12:20:07;;;;;;;4.95;2.60;;;;;;;5.79;100.00;98901.88;6715559;26;35569;-75
2021/12/02 12:23:29;;;;;;;3.75;2.15;;;;;;;5.79;100.00;98896.63;6715797;26;34011;-75
2021/12/02 12:26:38;;;;;;;4.00;2.40;;;;;;;5.75;100.00;98896.16;6715986;26;34976;-74
2021/12/02 12:29:42;;;;;;;3.03;1.83;;;;;;;5.74;100.00;98897.13;6716237;26;34600;-74
2021/12/02 12:33:01;;;;;;;4.70;2.10;;;;;;;5.65;100.00;98885.84;6716496;26;33865;-74
2021/12/02 12:36:15;;;;;;;3.62;1.75;;;;;;;5.57;100.00;98869.25;6715152;26;33038;-73
2021/12/02 12:39:23;;;;;;;6.78;1.95;;;;;;;5.59;100.00;98870.75;6717649;26;34787;-73
2021/12/02 12:42:25;;;;;;;4.32;1.80;;;;;;;5.69;100.00;98875.78;6718202;26;35260;-77
2021/12/02 12:45:33;;;;;;;3.60;1.98;;;;;;;5.72;100.00;98878.06;6717174;26;34495;-74
2021/12/02 12:48:36;;;;;;;3.97;2.00;;;;;;;5.65;100.00;98877.12;6716668;26;33946;-74
2021/12/02 12:51:48;;;;;;;4.32;2.12;;;;;;;5.72;100.00;98869.34;6717548;26;34014;-73
2021/12/02 12:55:17;;;;;;;7.30;2.25;;;;;;;5.91;100.00;98869.75;6717686;26;34066;-74
2021/12/02 12:58:30;;;;;;;6.28;2.25;;;;;;;5.92;100.00;98873.19;6717614;26;33998;-74
2021/12/02 13:01:34;;;;;;;3.50;2.00;;;;;;;5.89;100.00;98878.81;6717718;26;34324;-74
2021/12/02 13:04:51;;;;;;;6.75;2.30;;;;;;;5.84;100.00;98873.22;6717274;26;33826;-74
2021/12/02 13:08:22;;;;;;;3.92;2.20;;;;;;;5.71;100.00;98884.34;6717450;26;34087;-75
2021/12/02 13:11:29;;;;;;;3.78;1.80;;;;;;;5.76;100.00;98878.56;6697885;26;35365;-75
2021/12/02 13:14:34;;;;;;;4.62;2.08;;;;;;;5.65;100.00;98864.81;6716967;26;33960;-74
2021/12/02 13:17:37;;;;;;;4.03;2.30;;;;;;;5.60;100.00;98867.13;6697770;26;34098;-74
2021/12/02 13:20:41;;;;;;;4.95;2.47;;;;;;;5.61;100.00;98860.06;6717777;26;34085;-75
2021/12/02 13:24:03;;;;;;;5.47;2.80;;;;;;;5.64;100.00;98863.16;6717603;26;34759;-75
2021/12/02 13:27:06;;;;;;;5.43;3.30;;;;;;;5.71;100.00;98852.75;6716579;26;33968;-76
2021/12/02 13:30:14;;;;;;;4.60;2.95;;;;;;;5.60;100.00;98856.59;6717725;26;34032;-77
2021/12/02 13:33:29;;;;;;;8.88;4.90;;;;;;;5.59;100.00;98854.97;6717749;26;33735;-76
2021/12/02 13:36:44;;;;;;;9.07;4.90;;;;;;;5.62;100.00;98865.13;6717379;26;34889;-78
2021/12/02 13:39:47;;;;;;;8.02;4.05;;;;;;;5.67;100.00;98870.69;6717141;26;34006;-79
2021/12/02 13:42:58;;;;;;;13.50;4.30;;;;;;;5.73;100.00;98887.59;6697116;26;33681;-78
2021/12/02 13:46:11;;;;;;;12.45;4.53;;;;;;;5.62;100.00;98878.28;6717673;26;34740;-77
2021/12/02 13:49:19;;;;;;;7.50;4.57;;;;;;;5.93;100.00;98880.09;6696049;26;34293;-75
2021/12/02 13:55:38;;;;;;;9.45;4.50;;;;;;;5.78;100.00;98871.28;6716651;26;34051;-78
2021/12/02 13:58:41;;;;;;;8.88;4.57;;;;;;;5.69;100.00;98881.06;6716958;26;35339;-78
2021/12/02 14:01:51;;;;;;;14.27;5.20;;;;;;;5.71;100.00;98879.06;6716689;26;34156;-77
2021/12/02 14:04:55;;;;;;;9.93;5.00;;;;;;;5.71;100.00;98865.09;6697937;26;34475;-80
2021/12/02 14:08:02;;;;;;;7.80;4.95;;;;;;;5.74;100.00;98862.09;6698202;26;34008;-78
2021/12/02 14:11:05;;;;;;;8.52;5.20;;;;;;;5.83;100.00;98859.25;6697323;26;33929;-77
2021/12/02 14:14:23;;;;;;;10.77;5.12;;;;;;;5.69;100.00;98867.91;6718814;26;34077;-79
2021/12/02 14:18:05;;;;;;;7.10;3.85;;;;;;;5.78;100.00;98866.03;6698745;26;32675;-78
2021/12/02 14:21:10;;;;;;;9.00;4.43;;;;;;;5.55;100.00;98874.72;6716956;26;33688;-77
2021/12/02 14:24:16;;;;;;;11.55;4.75;;;;;;;5.50;100.00;98861.25;6716945;26;35038;-76
2021/12/02 14:27:21;;;;;;;8.88;4.90;;;;;;;5.49;100.00;98857.00;6679062;26;34059;-77
2021/12/02 14:30:26;;;;;;;12.23;5.07;;;;;;;5.49;100.00;98851.72;6697666;26;34077;-76
2021/12/02 14:33:42;;;;;;;11.75;5.87;;;;;;;5.45;100.00;98852.25;6716988;26;34307;-75
2021/12/02 14:36:53;;;;;;;12.73;5.35;;;;;;;5.42;100.00;98857.84;6716627;26;33935;-76
2021/12/02 14:39:57;;;;;;;9.55;4.90;;;;;;;5.44;100.00;98861.94;6716260;26;33689;-77
2021/12/02 14:43:22;;;;;;;10.65;5.43;;;;;;;5.37;100.00;98878.59;6697492;26;34770;-76
2021/12/02 14:46:46;;;;;;;13.77;6.28;;;;;;;5.36;100.00;98890.09;6716540;26;34199;-76
2021/12/02 14:49:51;;;;;;;15.48;7.40;;;;;;;5.44;100.00;98895.31;6696331;26;34996;-76